Time;durP1;ratioP1;P1;durP2;ratioP2;P2;SDS_P1;SDS_P2;PMS_P1;PMS_P2;Temp;Humidity;BMP_temperature;BMP_pressure;BME280_temperature;BME280_humidity;BME280_pressure;Samples;Min_cycle;Max_cycle;Signal;HPM_P1;HPM_P2
2022/03/23 00:00:04;;;;;;;19.08;15.98;;;6.50;80.80;;;;;;5028222;28;20206;-80
2022/03/23 00:02:31;;;;;;;17.95;13.73;;;6.50;80.90;;;;;;5019217;28;20220;-79
2022/03/23 00:04:59;;;;;;;22.63;16.52;;;6.40;81.00;;;;;;5016798;28;20203;-79
2022/03/23 00:07:25;;;;;;;16.40;14.07;;;6.40;81.90;;;;;;5020565;28;20716;-78
2022/03/23 00:09:52;;;;;;;17.40;13.35;;;6.30;80.50;;;;;;5022770;28;20203;-79
2022/03/23 00:12:19;;;;;;;15.52;13.30;;;6.10;79.40;;;;;;5022147;28;20211;-79
2022/03/23 00:14:45;;;;;;;15.73;13.43;;;6.10;79.20;;;;;;5022310;28;20210;-77
2022/03/23 00:17:12;;;;;;;19.77;14.30;;;6.20;79.30;;;;;;5023456;28;20227;-77
2022/03/23 00:19:39;;;;;;;15.88;13.70;;;6.20;79.70;;;;;;5022720;28;20218;-79
2022/03/23 00:22:07;;;;;;;15.30;13.40;;;6.20;79.80;;;;;;5024972;28;20203;-79
2022/03/23 00:24:34;;;;;;;14.60;13.05;;;6.20;79.20;;;;;;5018835;28;20230;-81
2022/03/23 00:27:00;;;;;;;14.88;13.00;;;6.10;77.90;;;;;;5016105;28;20223;-79
2022/03/23 00:29:27;;;;;;;16.92;11.93;;;6.10;78.50;;;;;;5018009;28;20214;-79
2022/03/23 00:31:54;;;;;;;13.02;11.38;;;6.10;78.40;;;;;;5023049;28;20214;-79
2022/03/23 00:34:21;;;;;;;18.88;13.00;;;6.10;78.70;;;;;;5019309;28;20203;-80
2022/03/23 00:36:48;;;;;;;17.90;13.55;;;6.10;79.10;;;;;;5017843;28;20202;-79
2022/03/23 00:39:16;;;;;;;17.50;14.93;;;6.00;79.10;;;;;;5018639;28;20203;-78
2022/03/23 00:41:42;;;;;;;18.10;14.52;;;6.00;79.60;;;;;;5019029;28;20203;-79
2022/03/23 00:44:09;;;;;;;16.52;12.80;;;6.00;80.10;;;;;;5015808;28;20223;-79
2022/03/23 00:46:36;;;;;;;16.20;13.48;;;5.90;80.30;;;;;;5016139;28;20210;-79
2022/03/23 00:49:03;;;;;;;16.60;14.00;;;5.90;80.60;;;;;;5017801;28;20203;-79
2022/03/23 00:51:29;;;;;;;18.55;13.75;;;5.90;80.90;;;;;;5016547;28;20710;-79
2022/03/23 00:53:56;;;;;;;18.85;14.65;;;5.90;81.30;;;;;;5015145;28;20207;-79
2022/03/23 00:56:24;;;;;;;18.08;14.10;;;5.70;81.80;;;;;;5014522;28;20226;-79
2022/03/23 00:58:51;;;;;;;14.60;13.05;;;5.50;82.80;;;;;;5017385;28;20226;-79
2022/03/23 01:01:18;;;;;;;17.48;13.35;;;5.40;83.20;;;;;;5020500;28;20214;-79
2022/03/23 01:03:44;;;;;;;18.27;14.57;;;5.30;83.60;;;;;;5022534;28;20222;-79
2022/03/23 01:06:11;;;;;;;17.75;13.18;;;5.20;84.20;;;;;;5023053;28;20211;-78
2022/03/23 01:08:38;;;;;;;16.10;13.88;;;5.20;84.50;;;;;;5021356;28;20218;-78
2022/03/23 01:11:05;;;;;;;20.95;14.80;;;5.30;84.10;;;;;;5021985;28;20202;-81
2022/03/23 01:13:33;;;;;;;13.95;12.48;;;5.30;83.60;;;;;;5020666;28;20199;-79
2022/03/23 01:16:00;;;;;;;14.50;13.02;;;5.30;83.20;;;;;;5022757;28;20218;-79
2022/03/23 01:18:27;;;;;;;14.38;12.93;;;5.30;82.80;;;;;;5021972;28;20223;-79
2022/03/23 01:20:53;;;;;;;16.02;12.93;;;5.30;82.50;;;;;;5019642;28;20253;-79
2022/03/23 01:23:20;;;;;;;16.80;13.20;;;5.40;82.10;;;;;;5022014;28;20257;-78
2022/03/23 01:25:47;;;;;;;18.90;12.40;;;5.40;81.70;;;;;;5021095;28;20222;-79
2022/03/23 01:28:14;;;;;;;16.23;13.40;;;5.40;81.40;;;;;;5021433;28;20643;-80
2022/03/23 01:30:42;;;;;;;17.45;13.38;;;5.40;81.80;;;;;;5021169;28;20203;-79
2022/03/23 01:33:09;;;;;;;16.23;13.57;;;5.30;82.20;;;;;;5019518;28;20210;-79
2022/03/23 01:35:35;;;;;;;16.02;12.63;;;5.30;82.50;;;;;;5019596;28;20203;-80
2022/03/23 01:38:02;;;;;;;15.45;11.35;;;5.30;81.70;;;;;;5018953;28;20226;-79
2022/03/23 01:40:29;;;;;;;12.60;10.68;;;5.30;81.30;;;;;;5021827;28;20203;-80
2022/03/23 01:42:56;;;;;;;14.02;12.63;;;5.30;80.90;;;;;;5020288;28;20238;-79
2022/03/23 01:45:23;;;;;;;16.75;11.93;;;5.30;80.40;;;;;;5022720;28;20580;-80
2022/03/23 01:47:51;;;;;;;14.55;11.23;;;5.30;79.90;;;;;;5020224;28;20238;-81
2022/03/23 01:50:18;;;;;;;17.00;12.65;;;5.20;79.00;;;;;;5019346;28;20568;-80
2022/03/23 01:52:44;;;;;;;16.65;12.35;;;5.30;80.30;;;;;;5019618;28;20211;-79
2022/03/23 01:55:13;;;;;;;15.63;12.60;;;5.30;81.40;;;;;;5021803;28;20211;-79
2022/03/23 01:57:44;;;;;;;15.10;11.35;;;5.20;81.30;;;;;;5022654;28;20238;-79
2022/03/23 02:00:14;;;;;;;12.00;10.80;;;5.30;81.40;;;;;;5022675;28;20211;-78
2022/03/23 02:02:41;;;;;;;12.30;10.45;;;5.20;80.00;;;;;;5019124;28;20210;-80
2022/03/23 02:05:10;;;;;;;11.95;10.50;;;5.20;79.40;;;;;;5019505;28;20207;-81
2022/03/23 02:07:37;;;;;;;11.85;10.65;;;5.20;79.20;;;;;;5020038;28;20237;-81
2022/03/23 02:10:05;;;;;;;13.57;11.75;;;5.20;78.50;;;;;;5019725;28;20585;-79
2022/03/23 02:12:31;;;;;;;15.48;11.82;;;5.00;79.70;;;;;;5019159;28;20203;-79
2022/03/23 02:14:59;;;;;;;14.80;13.00;;;4.80;80.30;;;;;;5020177;28;20203;-79
2022/03/23 02:17:26;;;;;;;12.60;11.27;;;4.60;81.30;;;;;;5020750;28;20234;-81
2022/03/23 02:19:53;;;;;;;12.63;11.30;;;4.60;81.90;;;;;;5020754;28;20687;-78
2022/03/23 02:22:21;;;;;;;19.38;12.95;;;4.70;81.60;;;;;;5021516;28;20218;-77
2022/03/23 02:24:48;;;;;;;12.35;10.65;;;4.80;81.20;;;;;;5021890;28;20231;-79
2022/03/23 02:27:15;;;;;;;15.05;12.95;;;4.80;80.90;;;;;;5018342;28;20281;-79
2022/03/23 02:29:42;;;;;;;17.10;11.35;;;4.80;80.80;;;;;;5019524;28;20215;-80
2022/03/23 02:32:09;;;;;;;16.92;12.25;;;4.90;80.50;;;;;;5018235;28;20199;-80
2022/03/23 02:34:36;;;;;;;12.80;10.68;;;4.90;80.10;;;;;;5018669;28;20214;-79
2022/03/23 02:37:04;;;;;;;12.52;11.23;;;4.90;80.30;;;;;;5018070;28;20218;-78
2022/03/23 02:39:32;;;;;;;16.85;11.27;;;4.90;80.40;;;;;;5020609;28;20768;-79
2022/03/23 02:41:59;;;;;;;14.27;10.88;;;5.00;80.40;;;;;;5016666;28;20218;-79
2022/03/23 02:44:26;;;;;;;15.25;11.95;;;4.90;79.90;;;;;;5018940;28;20219;-78
2022/03/23 02:46:53;;;;;;;16.45;12.70;;;4.80;79.90;;;;;;5019189;28;20230;-78
2022/03/23 02:49:20;;;;;;;17.80;11.93;;;4.80;80.20;;;;;;5021366;28;20582;-79
2022/03/23 02:51:47;;;;;;;14.77;13.48;;;4.80;80.30;;;;;;5019734;28;20214;-79
2022/03/23 03:02:41;;;;;;;17.88;11.18;;;4.80;81.30;;;;;;5016275;28;20404;-79
2022/03/23 03:05:10;;;;;;;17.77;13.45;;;4.80;81.30;;;;;;5020781;28;20233;-79
2022/03/23 03:10:18;;;;;;;16.92;12.75;;;4.80;81.80;;;;;;5017647;28;20743;-79
2022/03/23 03:12:47;;;;;;;18.60;12.20;;;4.70;81.90;;;;;;5016564;28;20211;-79
2022/03/23 03:15:14;;;;;;;14.38;11.80;;;4.70;82.30;;;;;;5016145;28;20203;-79
2022/03/23 03:17:41;;;;;;;13.65;12.35;;;4.70;82.50;;;;;;5016689;28;20227;-79
2022/03/23 03:20:09;;;;;;;15.60;12.82;;;4.70;82.70;;;;;;5016262;28;20203;-79
2022/03/23 03:22:38;;;;;;;12.68;11.40;;;4.60;83.40;;;;;;5015925;28;20214;-79
2022/03/23 03:25:05;;;;;;;17.15;12.07;;;4.50;83.50;;;;;;5014794;28;20226;-81
2022/03/23 03:27:32;;;;;;;13.38;12.05;;;4.50;83.80;;;;;;5015074;28;20565;-81
2022/03/23 03:30:00;;;;;;;14.98;13.43;;;4.50;84.60;;;;;;5015175;28;20257;-81
2022/03/23 03:32:27;;;;;;;14.88;13.30;;;4.50;85.00;;;;;;5015500;28;20226;-81
2022/03/23 03:34:54;;;;;;;19.02;13.05;;;4.40;85.10;;;;;;5015114;28;20205;-81
2022/03/23 03:37:21;;;;;;;19.40;13.88;;;4.40;85.00;;;;;;5015408;28;20227;-80
2022/03/23 03:39:47;;;;;;;13.05;11.75;;;4.30;84.90;;;;;;5018565;28;20206;-78
2022/03/23 03:42:14;;;;;;;16.70;12.45;;;4.30;85.30;;;;;;5021270;28;20198;-78
2022/03/23 03:44:41;;;;;;;14.07;12.00;;;4.30;85.30;;;;;;5020576;28;20738;-78
2022/03/23 03:47:10;;;;;;;19.33;14.40;;;4.30;85.60;;;;;;5020477;28;20230;-78
2022/03/23 03:49:36;;;;;;;15.60;12.35;;;4.20;86.90;;;;;;5020914;28;20297;-78
2022/03/23 03:52:03;;;;;;;16.38;12.38;;;4.20;88.00;;;;;;5020930;28;20205;-78
2022/03/23 03:54:30;;;;;;;17.40;13.77;;;4.20;88.60;;;;;;5021342;28;20571;-78
2022/03/23 03:56:57;;;;;;;12.95;11.45;;;4.20;89.10;;;;;;5018712;28;20230;-79
2022/03/23 03:59:24;;;;;;;17.63;13.18;;;4.10;89.20;;;;;;5017031;28;20207;-80
2022/03/23 04:01:51;;;;;;;16.13;13.20;;;4.10;89.40;;;;;;5017328;28;20814;-81
2022/03/23 04:04:19;;;;;;;22.10;13.77;;;4.10;89.70;;;;;;5017652;28;20231;-81
2022/03/23 04:06:46;;;;;;;17.73;11.90;;;4.10;89.70;;;;;;5018107;28;20207;-81
2022/03/23 04:09:13;;;;;;;18.27;14.32;;;4.00;89.60;;;;;;5017536;28;20211;-81
2022/03/23 04:11:40;;;;;;;13.32;11.88;;;4.00;89.60;;;;;;5016635;28;20229;-80
2022/03/23 04:14:07;;;;;;;19.90;13.52;;;4.00;90.10;;;;;;5016851;28;20210;-81
2022/03/23 04:16:33;;;;;;;15.20;13.70;;;4.00;89.90;;;;;;5017126;28;20199;-80
2022/03/23 04:19:00;;;;;;;15.98;12.45;;;4.00;89.90;;;;;;5018068;28;20207;-81
2022/03/23 04:21:28;;;;;;;13.90;11.82;;;4.00;90.10;;;;;;5017047;28;20237;-79
2022/03/23 04:23:55;;;;;;;21.48;14.30;;;3.90;90.20;;;;;;5017595;28;20230;-78
2022/03/23 04:26:22;;;;;;;15.25;12.82;;;3.90;90.30;;;;;;5017822;28;20568;-78
2022/03/23 04:28:48;;;;;;;17.90;14.00;;;3.90;90.30;;;;;;5017321;28;20227;-81
2022/03/23 04:31:15;;;;;;;19.02;14.10;;;3.90;90.50;;;;;;5016174;28;20223;-81
2022/03/23 04:33:42;;;;;;;16.02;12.52;;;3.80;90.70;;;;;;5016348;28;20214;-81
2022/03/23 04:36:09;;;;;;;19.13;13.95;;;3.80;90.80;;;;;;5015632;28;20222;-81
2022/03/23 04:38:37;;;;;;;17.50;13.35;;;3.80;91.10;;;;;;5015785;28;20227;-81
2022/03/23 04:41:05;;;;;;;16.13;12.45;;;3.80;91.30;;;;;;5015504;28;20195;-81
2022/03/23 04:43:31;;;;;;;17.42;13.98;;;3.70;91.40;;;;;;5015231;28;20664;-81
2022/03/23 04:45:58;;;;;;;18.48;14.15;;;3.70;91.50;;;;;;5016438;28;20222;-79
2022/03/23 04:48:25;;;;;;;15.45;13.20;;;3.70;91.50;;;;;;5017025;28;20230;-79
2022/03/23 04:50:52;;;;;;;18.92;14.10;;;3.60;91.50;;;;;;5016990;28;20205;-79
2022/03/23 04:53:18;;;;;;;19.27;14.98;;;3.60;91.50;;;;;;5015496;28;20210;-81
2022/03/23 04:55:47;;;;;;;15.60;12.35;;;3.60;91.50;;;;;;5015810;28;20203;-81
2022/03/23 04:58:13;;;;;;;18.45;13.00;;;3.60;91.60;;;;;;5017231;28;20242;-79
2022/03/23 05:00:40;;;;;;;15.30;11.85;;;3.50;91.60;;;;;;5016386;28;20207;-79
2022/03/23 05:03:07;;;;;;;16.10;12.68;;;3.60;91.70;;;;;;5017155;28;20215;-79
2022/03/23 05:05:34;;;;;;;16.10;13.48;;;3.50;91.80;;;;;;5017191;28;20232;-79
2022/03/23 05:08:01;;;;;;;21.35;15.05;;;3.50;92.00;;;;;;5017447;28;20236;-79
2022/03/23 05:10:28;;;;;;;16.25;12.52;;;3.50;92.20;;;;;;5017204;28;20210;-80
2022/03/23 05:12:57;;;;;;;15.40;13.45;;;3.50;92.50;;;;;;5013889;28;20638;-80
2022/03/23 05:15:24;;;;;;;16.52;13.43;;;3.50;92.70;;;;;;5014431;28;20552;-80
2022/03/23 05:17:51;;;;;;;15.75;13.50;;;3.40;92.80;;;;;;5013871;28;20237;-80
2022/03/23 05:20:18;;;;;;;18.52;16.45;;;3.50;93.10;;;;;;5014032;28;20214;-80
2022/03/23 05:22:45;;;;;;;19.33;14.32;;;3.40;93.10;;;;;;5013625;28;20588;-80
2022/03/23 05:25:13;;;;;;;18.45;15.80;;;3.30;93.20;;;;;;5014026;28;20229;-80
2022/03/23 05:27:41;;;;;;;17.55;14.25;;;3.40;93.30;;;;;;5013722;28;20236;-80
2022/03/23 05:30:12;;;;;;;15.60;12.80;;;3.40;93.30;;;;;;5013703;28;20207;-79
2022/03/23 05:32:39;;;;;;;17.65;14.15;;;3.40;93.40;;;;;;5013902;28;20210;-81
2022/03/23 05:35:09;;;;;;;22.98;15.55;;;3.40;93.50;;;;;;5014100;28;20192;-79
2022/03/23 05:37:36;;;;;;;19.02;12.23;;;3.40;93.80;;;;;;5014519;28;20233;-79
2022/03/23 05:40:03;;;;;;;16.17;14.18;;;3.40;94.00;;;;;;5013695;28;20196;-79
2022/03/23 05:42:30;;;;;;;15.43;13.73;;;3.50;94.20;;;;;;5014621;28;20268;-79
2022/03/23 05:44:57;;;;;;;19.75;14.50;;;3.50;94.30;;;;;;5014083;28;20232;-79
2022/03/23 05:47:25;;;;;;;15.63;13.73;;;3.50;94.40;;;;;;5017335;28;20245;-79
2022/03/23 05:49:52;;;;;;;21.92;15.77;;;3.50;94.40;;;;;;5021549;28;20218;-78
2022/03/23 05:52:18;;;;;;;22.30;15.30;;;3.50;94.50;;;;;;5020770;28;20207;-78
2022/03/23 05:54:45;;;;;;;16.50;14.77;;;3.60;94.50;;;;;;5021596;28;20561;-79
2022/03/23 05:57:12;;;;;;;16.75;14.90;;;3.60;94.50;;;;;;5022232;28;20298;-78
2022/03/23 05:59:39;;;;;;;23.95;15.50;;;3.60;94.50;;;;;;5022064;28;20214;-78
2022/03/23 06:02:06;;;;;;;20.65;16.98;;;3.60;94.50;;;;;;5021383;28;20210;-79
2022/03/23 06:04:34;;;;;;;19.58;15.15;;;3.70;94.50;;;;;;5021195;28;20598;-79
2022/03/23 06:07:00;;;;;;;17.10;15.30;;;3.70;94.60;;;;;;5021960;28;20734;-78
2022/03/23 06:09:27;;;;;;;20.65;15.13;;;3.70;94.70;;;;;;5021634;28;20213;-79
2022/03/23 06:11:54;;;;;;;22.50;17.23;;;3.80;94.70;;;;;;5021485;28;20208;-79
2022/03/23 06:14:20;;;;;;;19.13;16.45;;;3.90;94.80;;;;;;5022352;28;20203;-78
2022/03/23 06:16:47;;;;;;;16.60;14.98;;;3.90;94.80;;;;;;5020903;28;20210;-81
2022/03/23 06:19:14;;;;;;;23.10;15.93;;;4.00;94.80;;;;;;5021946;28;20203;-81
2022/03/23 06:21:43;;;;;;;18.30;16.35;;;4.00;94.80;;;;;;5020952;28;20206;-80
2022/03/23 06:24:09;;;;;;;21.55;16.40;;;4.10;94.70;;;;;;5021224;28;20214;-81
2022/03/23 06:26:36;;;;;;;23.58;15.98;;;4.20;94.60;;;;;;5021066;28;20207;-81
2022/03/23 06:29:03;;;;;;;19.70;14.80;;;4.20;94.50;;;;;;5021495;28;20309;-81
2022/03/23 06:31:30;;;;;;;17.77;15.75;;;4.30;94.40;;;;;;5020813;28;20212;-81
2022/03/23 06:33:57;;;;;;;21.45;16.38;;;4.40;94.20;;;;;;5023436;28;20210;-81
2022/03/23 06:36:24;;;;;;;18.00;16.20;;;4.40;94.20;;;;;;5021478;28;20195;-79
2022/03/23 06:38:52;;;;;;;25.48;16.58;;;4.50;94.10;;;;;;5021173;28;20238;-78
2022/03/23 06:41:19;;;;;;;19.67;16.13;;;4.60;93.80;;;;;;5020983;28;20203;-79
2022/03/23 06:43:45;;;;;;;17.35;15.45;;;4.70;93.60;;;;;;5021381;28;20668;-79
2022/03/23 06:46:12;;;;;;;24.50;16.63;;;4.80;93.60;;;;;;5020438;28;20229;-79
2022/03/23 06:48:39;;;;;;;23.75;17.10;;;4.90;93.30;;;;;;5021244;28;20239;-79
2022/03/23 06:51:06;;;;;;;20.75;17.20;;;4.90;93.00;;;;;;5021014;28;20581;-79
2022/03/23 06:53:33;;;;;;;24.05;16.85;;;5.10;92.80;;;;;;5020971;28;20215;-79
2022/03/23 06:56:01;;;;;;;18.48;14.75;;;5.10;92.50;;;;;;5026369;28;20214;-78
2022/03/23 06:58:28;;;;;;;20.98;15.07;;;5.20;92.30;;;;;;5028706;28;20223;-78
2022/03/23 07:00:57;;;;;;;21.20;16.83;;;5.30;92.10;;;;;;5021823;28;20202;-79
2022/03/23 07:03:24;;;;;;;26.48;16.67;;;5.30;92.60;;;;;;5020580;28;20261;-79
2022/03/23 07:05:50;;;;;;;19.50;16.45;;;5.40;93.10;;;;;;5018026;28;20218;-80
2022/03/23 07:11:03;;;;;;;18.15;14.77;;;5.50;92.70;;;;;;5019646;28;20210;-80
2022/03/23 07:13:30;;;;;;;24.67;17.48;;;5.70;92.20;;;;;;5019396;28;20203;-82
2022/03/23 07:15:57;;;;;;;26.40;17.27;;;5.80;91.60;;;;;;5017426;28;20657;-81
2022/03/23 07:18:23;;;;;;;22.70;17.25;;;5.90;91.20;;;;;;5018200;28;20223;-82
2022/03/23 07:20:50;;;;;;;26.60;16.38;;;6.00;91.20;;;;;;5018157;28;20665;-82
2022/03/23 07:23:17;;;;;;;22.40;18.08;;;6.10;91.10;;;;;;5018919;28;20203;-81
2022/03/23 07:25:43;;;;;;;21.77;17.20;;;6.20;90.80;;;;;;5017917;28;20223;-81
2022/03/23 07:28:11;;;;;;;24.05;17.25;;;6.30;90.50;;;;;;5017971;28;20231;-81
2022/03/23 07:30:40;;;;;;;22.45;17.23;;;6.40;90.10;;;;;;5017141;28;20290;-82
2022/03/23 07:33:25;;;;;;;22.88;18.05;;;6.40;90.20;;;;;;5018422;28;20221;-82
2022/03/23 07:35:51;;;;;;;26.17;18.45;;;6.50;90.20;;;;;;5017148;28;20203;-81
2022/03/23 07:38:18;;;;;;;23.60;18.05;;;6.60;90.10;;;;;;5017113;28;20230;-79
2022/03/23 07:40:45;;;;;;;19.02;16.90;;;6.70;90.10;;;;;;5015843;28;20211;-82
2022/03/23 07:43:13;;;;;;;19.48;16.40;;;6.70;89.90;;;;;;5024146;28;20203;-80
2022/03/23 07:45:40;;;;;;;26.70;18.35;;;6.80;89.90;;;;;;5029523;28;21377;-80
2022/03/23 07:48:06;;;;;;;22.05;18.20;;;6.90;90.00;;;;;;5031080;28;20233;-80
2022/03/23 07:50:34;;;;;;;23.23;17.55;;;7.00;89.40;;;;;;5031254;28;20645;-80
2022/03/23 07:53:01;;;;;;;22.77;19.00;;;7.10;89.40;;;;;;5018336;28;20214;-81
2022/03/23 07:55:28;;;;;;;23.30;18.73;;;7.20;88.90;;;;;;4996930;28;20219;-79
2022/03/23 07:57:54;;;;;;;27.17;18.83;;;7.30;87.60;;;;;;5011342;28;20220;-79
2022/03/23 08:00:22;;;;;;;23.33;18.60;;;7.40;87.20;;;;;;5013779;28;20204;-79
2022/03/23 08:02:50;;;;;;;25.45;17.48;;;7.40;87.10;;;;;;5015226;28;20199;-79
2022/03/23 08:05:17;;;;;;;22.58;17.67;;;7.50;87.50;;;;;;5017653;28;20223;-77
2022/03/23 08:07:45;;;;;;;21.75;16.55;;;7.50;87.30;;;;;;5019907;28;20227;-78
2022/03/23 08:10:12;;;;;;;22.52;19.23;;;7.60;87.00;;;;;;5019338;28;20202;-78
2022/03/23 08:12:38;;;;;;;22.50;19.20;;;7.80;87.10;;;;;;5015694;28;20203;-80
2022/03/23 08:15:07;;;;;;;23.63;16.40;;;7.90;87.30;;;;;;5015391;28;20207;-79
2022/03/23 08:17:38;;;;;;;20.50;17.45;;;8.10;86.10;;;;;;5016053;28;20227;-79
2022/03/23 08:26:18;;;;;;;20.60;17.35;;;8.50;83.40;;;;;;5006548;28;20693;-83
2022/03/23 08:49:28;;;;;;;21.73;17.67;;;9.60;77.80;;;;;;4984448;28;20468;-85
2022/03/23 13:25:02;;;;;;;11.23;10.30;;;27.80;20.80;;;;;;4879787;29;20447;-82
2022/03/23 13:27:51;;;;;;;11.33;9.70;;;26.90;21.40;;;;;;4938352;28;20892;-82
2022/03/23 13:30:29;;;;;;;9.33;8.60;;;25.00;21.00;;;;;;4977571;28;20454;-82
2022/03/23 15:47:33;;;;;;;13.23;11.93;;;23.10;24.50;;;;;;5013954;28;20432;-84
2022/03/23 15:50:01;;;;;;;12.27;11.07;;;22.60;25.30;;;;;;5020391;28;20471;-80
2022/03/23 15:52:27;;;;;;;12.07;11.10;;;21.80;25.00;;;;;;5020783;28;20460;-80
2022/03/23 15:54:54;;;;;;;13.40;12.30;;;21.20;26.00;;;;;;5014594;28;20468;-80
2022/03/23 15:57:21;;;;;;;12.73;11.53;;;20.90;26.40;;;;;;5003925;28;20486;-80
2022/03/23 15:59:49;;;;;;;12.53;11.20;;;20.90;26.70;;;;;;5018810;28;20448;-83
2022/03/23 16:02:16;;;;;;;14.37;12.93;;;20.80;27.30;;;;;;5018128;28;20787;-83
2022/03/23 16:05:02;;;;;;;14.13;12.90;;;20.30;27.30;;;;;;5017792;28;20534;-84
2022/03/23 16:07:28;;;;;;;13.20;11.77;;;20.00;27.50;;;;;;5011925;28;20489;-84
2022/03/23 16:09:59;;;;;;;14.13;12.73;;;20.00;29.00;;;;;;5014921;28;20454;-85
2022/03/23 16:12:26;;;;;;;13.33;12.20;;;19.90;28.00;;;;;;5018012;28;20461;-83
2022/03/23 16:14:59;;;;;;;12.10;10.80;;;19.40;27.80;;;;;;5018083;28;20442;-83
2022/03/23 16:17:57;;;;;;;11.70;10.50;;;19.30;27.70;;;;;;5018576;28;20481;-83
2022/03/23 16:23:38;;;;;;;12.37;11.20;;;19.00;27.70;;;;;;4971788;28;20440;-83
2022/03/23 16:26:04;;;;;;;13.37;12.27;;;19.20;28.00;;;;;;4995082;28;20498;-81
2022/03/23 16:28:33;;;;;;;11.80;10.80;;;19.40;28.10;;;;;;5015933;28;20493;-82
2022/03/23 16:31:00;;;;;;;11.60;10.50;;;19.50;28.10;;;;;;5015329;28;20469;-81
2022/03/23 16:33:27;;;;;;;11.40;10.40;;;19.40;27.70;;;;;;5015977;28;20993;-81
2022/03/23 16:35:57;;;;;;;12.30;11.17;;;19.30;27.60;;;;;;5016696;28;20488;-81
2022/03/23 16:38:25;;;;;;;28.13;12.07;;;19.20;27.80;;;;;;5020696;28;20465;-81
2022/03/23 16:41:33;;;;;;;13.23;12.13;;;19.10;27.90;;;;;;5028448;28;20456;-82
2022/03/23 16:43:38;;;;;;;13.53;12.23;;;18.80;27.90;;;;;;5021708;28;20445;-82
2022/03/23 16:46:07;;;;;;;12.40;11.30;;;18.60;28.00;;;;;;5016231;28;20453;-81
2022/03/23 16:48:34;;;;;;;12.10;11.00;;;18.40;28.20;;;;;;5016475;28;20470;-82
2022/03/23 16:51:02;;;;;;;12.47;11.00;;;18.40;28.60;;;;;;5015876;28;20504;-82
2022/03/23 16:53:30;;;;;;;13.43;10.77;;;18.30;28.50;;;;;;5016569;28;20454;-82
2022/03/23 16:55:56;;;;;;;11.83;10.80;;;18.30;28.70;;;;;;5016194;28;20481;-82
2022/03/23 16:58:23;;;;;;;13.33;11.90;;;18.10;28.50;;;;;;5016738;28;20854;-81
2022/03/23 17:00:50;;;;;;;12.63;10.67;;;18.00;28.80;;;;;;5015891;28;20499;-82
2022/03/23 17:14:25;;;;;;;12.33;10.40;;;17.60;29.50;;;;;;5023909;28;20440;-85
2022/03/23 17:16:52;;;;;;;11.37;10.37;;;17.60;29.70;;;;;;5025330;28;20490;-80
2022/03/23 17:19:19;;;;;;;10.27;9.27;;;17.40;29.60;;;;;;5017006;28;20486;-81
2022/03/23 17:21:48;;;;;;;10.83;9.77;;;17.20;29.80;;;;;;5016530;28;20463;-82
2022/03/23 17:24:15;;;;;;;12.43;10.73;;;17.10;30.00;;;;;;5015727;28;20454;-81
2022/03/23 17:26:41;;;;;;;12.97;11.67;;;17.00;29.90;;;;;;5015095;28;20456;-80
2022/03/23 17:29:09;;;;;;;10.33;9.43;;;16.80;29.90;;;;;;5015788;28;20460;-80
2022/03/23 17:31:35;;;;;;;10.97;9.87;;;16.80;30.20;;;;;;5014985;28;20483;-80
2022/03/23 17:34:05;;;;;;;12.20;10.80;;;16.60;30.20;;;;;;5014928;28;20446;-82
2022/03/23 17:36:32;;;;;;;10.40;9.53;;;16.30;30.40;;;;;;5018633;28;20203;-81
2022/03/23 17:39:00;;;;;;;10.27;9.27;;;16.20;30.90;;;;;;5016744;28;20501;-80
2022/03/23 17:41:27;;;;;;;11.03;9.80;;;16.00;31.20;;;;;;5014155;28;20458;-80
2022/03/23 17:43:55;;;;;;;11.07;9.97;;;15.60;31.10;;;;;;5017755;28;20446;-80
2022/03/23 17:46:24;;;;;;;9.40;8.63;;;15.50;31.50;;;;;;5019250;28;20490;-81
2022/03/23 17:48:50;;;;;;;10.50;9.53;;;15.40;32.00;;;;;;5018647;28;20482;-81
2022/03/23 17:51:17;;;;;;;10.70;9.60;;;15.10;31.80;;;;;;5017945;28;20974;-81
2022/03/23 17:53:44;;;;;;;12.40;9.17;;;15.00;32.00;;;;;;5020009;28;20832;-82
2022/03/23 17:56:13;;;;;;;12.20;10.50;;;14.90;32.80;;;;;;5018900;28;20452;-82
2022/03/23 17:58:41;;;;;;;10.10;9.10;;;14.80;32.90;;;;;;5018757;28;20514;-82
2022/03/23 18:01:08;;;;;;;12.17;9.97;;;14.60;32.80;;;;;;5017814;28;20534;-82
2022/03/23 18:03:35;;;;;;;10.33;9.33;;;14.50;33.00;;;;;;5017794;28;20458;-83
2022/03/23 18:06:04;;;;;;;10.70;9.70;;;14.40;33.30;;;;;;5017619;28;20462;-83
2022/03/23 18:08:31;;;;;;;10.90;9.80;;;14.30;33.40;;;;;;5017248;28;20481;-83
2022/03/23 18:10:58;;;;;;;12.23;9.97;;;14.30;33.80;;;;;;5017364;28;20457;-83
2022/03/23 18:13:27;;;;;;;11.70;10.70;;;14.10;33.70;;;;;;5015395;28;20458;-80
2022/03/23 18:15:54;;;;;;;10.53;9.20;;;14.00;34.20;;;;;;5015708;28;20458;-80
2022/03/23 18:18:21;;;;;;;11.27;10.27;;;13.90;34.70;;;;;;5016310;28;20422;-80
2022/03/23 18:20:48;;;;;;;11.13;10.00;;;13.80;35.10;;;;;;5015029;28;20211;-80
2022/03/23 18:23:15;;;;;;;11.57;9.77;;;13.70;34.70;;;;;;5015250;28;20450;-81
2022/03/23 18:25:42;;;;;;;9.90;8.67;;;13.60;35.20;;;;;;5017239;28;20462;-80
2022/03/23 18:28:09;;;;;;;11.37;10.17;;;13.50;35.50;;;;;;5016526;28;20482;-80
2022/03/23 18:30:37;;;;;;;9.77;8.77;;;13.50;35.60;;;;;;5018291;28;20454;-80
2022/03/23 18:33:05;;;;;;;11.10;10.10;;;13.40;35.50;;;;;;5018056;28;20454;-80
2022/03/23 18:35:31;;;;;;;12.93;11.53;;;13.40;35.60;;;;;;5002958;28;20500;-81
2022/03/23 18:37:58;;;;;;;12.50;10.10;;;13.40;35.80;;;;;;5010649;28;20466;-80
2022/03/23 18:40:25;;;;;;;14.27;11.07;;;13.20;36.20;;;;;;5009123;28;20447;-81
2022/03/23 18:42:52;;;;;;;14.13;10.43;;;13.00;36.30;;;;;;5006177;28;20808;-81
2022/03/23 18:45:20;;;;;;;12.37;10.10;;;12.90;36.50;;;;;;5002179;28;20458;-80
2022/03/23 20:35:58;;;;;;;13.60;12.23;;;10.70;43.90;;;;;;4815789;29;20428;-80
2022/03/23 20:38:35;;;;;;;14.27;12.80;;;10.60;44.00;;;;;;4897770;29;20531;-81
2022/03/23 20:41:18;;;;;;;13.40;12.10;;;10.60;44.50;;;;;;4982776;28;20523;-81
2022/03/23 20:43:49;;;;;;;15.10;12.07;;;10.50;46.30;;;;;;5006887;28;20488;-81
2022/03/23 20:46:22;;;;;;;15.80;14.30;;;10.40;47.40;;;;;;5007538;28;20957;-81
2022/03/23 20:48:50;;;;;;;17.43;14.37;;;10.30;47.40;;;;;;5005109;28;20493;-80
2022/03/23 20:51:24;;;;;;;17.47;12.90;;;10.30;46.60;;;;;;5006208;28;20452;-80
2022/03/23 20:53:51;;;;;;;14.57;12.70;;;10.30;45.70;;;;;;4995789;28;20991;-81
2022/03/23 20:56:23;;;;;;;15.80;13.57;;;10.30;45.60;;;;;;5006551;28;20532;-80
2022/03/23 20:58:50;;;;;;;16.08;14.57;;;10.30;45.80;;;;;;5005072;28;20474;-80
2022/03/23 21:01:21;;;;;;;15.23;13.53;;;10.20;45.90;;;;;;5005924;28;20205;-81
2022/03/23 21:03:49;;;;;;;15.00;13.03;;;10.10;46.10;;;;;;5005173;28;20460;-80
2022/03/23 21:06:17;;;;;;;16.30;14.70;;;10.10;46.40;;;;;;5006039;28;20441;-81
2022/03/23 21:08:48;;;;;;;15.40;13.60;;;10.00;46.30;;;;;;5004145;28;20664;-81
2022/03/23 21:11:15;;;;;;;14.77;13.00;;;10.00;46.60;;;;;;5006163;28;20495;-80
2022/03/23 21:13:43;;;;;;;14.60;13.20;;;10.00;46.50;;;;;;5004506;28;20445;-81
2022/03/23 21:16:12;;;;;;;15.90;14.00;;;10.00;46.30;;;;;;5013885;28;20527;-81
2022/03/23 21:18:39;;;;;;;15.33;13.33;;;10.00;45.90;;;;;;5011028;28;20468;-82
2022/03/23 21:21:07;;;;;;;14.97;13.20;;;9.90;46.50;;;;;;5008589;28;20454;-81
2022/03/23 21:23:34;;;;;;;14.13;12.30;;;9.90;46.50;;;;;;5011335;28;20469;-81
2022/03/23 21:26:03;;;;;;;15.73;14.15;;;9.90;47.00;;;;;;5017487;28;20455;-79
2022/03/23 21:28:30;;;;;;;16.77;14.00;;;9.80;47.00;;;;;;5026044;28;20225;-80
2022/03/23 21:30:58;;;;;;;14.97;12.70;;;9.80;47.30;;;;;;5016776;28;20464;-81
2022/03/23 21:33:26;;;;;;;16.00;14.40;;;9.70;47.40;;;;;;5010337;28;20495;-81
2022/03/23 21:35:55;;;;;;;15.80;14.30;;;9.70;48.00;;;;;;5009416;28;20462;-80
2022/03/23 21:38:23;;;;;;;13.80;12.50;;;9.60;48.90;;;;;;5010137;28;20471;-80
2022/03/23 21:40:50;;;;;;;16.70;13.23;;;9.60;49.50;;;;;;5011832;28;20424;-80
2022/03/23 21:43:19;;;;;;;15.70;13.53;;;9.50;49.30;;;;;;5019847;28;20456;-80
2022/03/23 21:45:46;;;;;;;15.20;13.70;;;9.50;49.60;;;;;;5019420;28;20460;-79
2022/03/23 22:15:19;;;;;;;19.30;16.73;;;8.90;52.50;;;;;;4858197;29;20714;-80
2022/03/23 22:17:54;;;;;;;30.00;20.17;;;8.90;52.90;;;;;;4961127;28;20473;-79
2022/03/23 22:23:51;;;;;;;23.23;18.40;;;8.80;53.00;;;;;;5016479;28;20682;-79
2022/03/23 22:29:55;;;;;;;23.47;16.77;;;8.70;53.50;;;;;;4969415;28;20471;-82
2022/03/23 22:32:34;;;;;;;20.13;17.58;;;8.60;53.80;;;;;;5018319;28;20904;-82
